Time;durP1;ratioP1;P1;durP2;ratioP2;P2;SDS_P1;SDS_P2;PMS_P1;PMS_P2;Temp;Humidity;BMP_temperature;BMP_pressure;BME280_temperature;BME280_humidity;BME280_pressure;Samples;Min_cycle;Max_cycle;Signal;HPM_P1;HPM_P2
2023/04/12 00:01:02;;;;;;;;;;;8.80;72.10;;;;;;5101684;27;92183;-43
2023/04/12 00:03:27;;;;;;;;;;;8.80;72.10;;;;;;5101391;27;93805;-43
2023/04/12 00:05:53;;;;;;;;;;;8.80;72.00;;;;;;5102679;27;95190;-43
2023/04/12 00:08:23;;;;;;;;;;;8.80;72.20;;;;;;5101348;27;94873;-50
2023/04/12 00:10:49;;;;;;;;;;;8.80;72.10;;;;;;5100773;27;94851;-42
2023/04/12 00:13:15;;;;;;;;;;;8.80;72.10;;;;;;5101147;27;92145;-42
2023/04/12 00:15:40;;;;;;;;;;;8.80;72.10;;;;;;5101315;27;94130;-43
2023/04/12 00:18:06;;;;;;;;;;;8.80;72.00;;;;;;5100789;27;93022;-43
2023/04/12 00:20:31;;;;;;;;;;;8.80;72.00;;;;;;5100912;27;92148;-43
2023/04/12 00:22:57;;;;;;;;;;;8.80;72.00;;;;;;5101413;27;93739;-42
2023/04/12 00:25:22;;;;;;;;;;;8.80;71.90;;;;;;5100667;27;94687;-43
2023/04/12 00:27:48;;;;;;;;;;;8.80;72.00;;;;;;5103984;27;92081;-43
2023/04/12 00:30:13;;;;;;;;;;;8.80;72.10;;;;;;5095885;27;95901;-43
2023/04/12 00:32:39;;;;;;;;;;;8.80;71.90;;;;;;5101007;27;92175;-43
2023/04/12 00:35:05;;;;;;;;;;;8.80;71.90;;;;;;5100616;27;93987;-43
2023/04/12 00:37:31;;;;;;;;;;;8.80;72.00;;;;;;5100161;27;92049;-42
2023/04/12 00:39:56;;;;;;;;;;;8.70;71.90;;;;;;5101229;27;92676;-42
2023/04/12 00:42:22;;;;;;;;;;;8.80;72.00;;;;;;5100806;27;93763;-42
2023/04/12 00:44:47;;;;;;;;;;;8.70;71.90;;;;;;5100393;27;93051;-43
2023/04/12 00:47:13;;;;;;;;;;;8.70;71.90;;;;;;5104168;27;91454;-42
2023/04/12 00:49:40;;;;;;;;;;;8.80;72.50;;;;;;5099832;27;94861;-42
2023/04/12 00:52:09;;;;;;;;;;;8.70;72.00;;;;;;5100794;27;92225;-42
2023/04/12 00:54:36;;;;;;;;;;;8.70;71.90;;;;;;5099946;27;94100;-42
2023/04/12 00:57:01;;;;;;;;;;;8.70;71.90;;;;;;5100006;27;94852;-42
2023/04/12 00:59:27;;;;;;;;;;;8.70;71.90;;;;;;5100722;27;92098;-42
2023/04/12 01:01:54;;;;;;;;;;;8.70;71.90;;;;;;5100606;27;92326;-42
2023/04/12 01:04:21;;;;;;;;;;;8.70;71.90;;;;;;5099275;27;94176;-42
2023/04/12 01:06:49;;;;;;;;;;;8.70;71.90;;;;;;5100024;27;92660;-43
2023/04/12 01:09:19;;;;;;;;;;;8.70;71.90;;;;;;5098731;27;94316;-43
2023/04/12 01:11:57;;;;;;;;;;;8.60;71.90;;;;;;5100477;27;91447;-42
2023/04/12 01:14:32;;;;;;;;;;;8.60;71.90;;;;;;5099885;27;92701;-42
2023/04/12 01:17:01;;;;;;;;;;;8.60;71.90;;;;;;5097052;27;93132;-43
2023/04/12 01:19:45;;;;;;;;;;;8.60;71.90;;;;;;5099960;27;93060;-42
2023/04/12 01:22:22;;;;;;;;;;;8.60;71.90;;;;;;5097669;27;94793;-42
2023/04/12 01:24:48;;;;;;;;;;;8.60;71.90;;;;;;5099289;27;94557;-43
2023/04/12 01:27:28;;;;;;;;;;;8.60;71.90;;;;;;5100223;27;92326;-42
2023/04/12 01:29:55;;;;;;;;;;;8.60;71.90;;;;;;5100398;27;93810;-42
2023/04/12 01:32:21;;;;;;;;;;;8.60;71.90;;;;;;5102945;27;93068;-43
2023/04/12 01:34:46;;;;;;;;;;;8.60;71.90;;;;;;5100289;27;92400;-43
2023/04/12 01:37:12;;;;;;;;;;;8.60;71.90;;;;;;5100018;27;93550;-43
2023/04/12 01:39:37;;;;;;;;;;;8.60;71.90;;;;;;5100467;27;92154;-43
2023/04/12 01:42:03;;;;;;;;;;;8.60;71.90;;;;;;5099783;27;92654;-43
2023/04/12 01:44:28;;;;;;;;;;;8.60;71.90;;;;;;5098427;27;95693;-42
2023/04/12 01:46:54;;;;;;;;;;;8.60;71.90;;;;;;5099542;27;92223;-42
2023/04/12 01:49:20;;;;;;;;;;;8.50;71.90;;;;;;5099727;27;93885;-43
2023/04/12 01:51:49;;;;;;;;;;;8.60;71.90;;;;;;5098912;27;94539;-42
2023/04/12 01:54:26;;;;;;;;;;;8.50;71.90;;;;;;5102932;27;92516;-42
2023/04/12 01:56:59;;;;;;;;;;;8.50;71.80;;;;;;5095358;27;94419;-42
2023/04/12 01:59:33;;;;;;;;;;;8.50;71.90;;;;;;5099321;27;92202;-42
2023/04/12 02:01:59;;;;;;;;;;;8.50;72.50;;;;;;5100025;27;94106;-42
2023/04/12 02:04:26;;;;;;;;;;;8.50;71.80;;;;;;5099006;27;94842;-42
2023/04/12 02:06:52;;;;;;;;;;;8.50;71.80;;;;;;5098988;27;92353;-43
2023/04/12 02:09:18;;;;;;;;;;;8.50;71.80;;;;;;5097410;27;95551;-43
2023/04/12 02:11:47;;;;;;;;;;;8.50;71.80;;;;;;5098672;27;94035;-43
2023/04/12 02:14:13;;;;;;;;;;;8.50;71.80;;;;;;5098663;27;92377;-43
2023/04/12 02:16:41;;;;;;;;;;;8.50;71.90;;;;;;5102007;27;92498;-43
2023/04/12 02:19:07;;;;;;;;;;;8.40;71.80;;;;;;5099268;27;92261;-42
2023/04/12 02:21:40;;;;;;;;;;;8.50;71.90;;;;;;5099411;27;93881;-43
2023/04/12 02:24:06;;;;;;;;;;;8.50;71.80;;;;;;5098558;27;92993;-43
2023/04/12 02:26:31;;;;;;;;;;;8.40;71.80;;;;;;5099281;27;91523;-43
2023/04/12 02:28:57;;;;;;;;;;;8.40;71.90;;;;;;5099546;27;92061;-43
2023/04/12 02:31:23;;;;;;;;;;;8.40;71.90;;;;;;5098711;27;94108;-43
2023/04/12 02:33:49;;;;;;;;;;;8.40;71.80;;;;;;5098398;27;93203;-43
2023/04/12 02:36:15;;;;;;;;;;;8.40;71.90;;;;;;5101261;27;94536;-43
2023/04/12 02:38:40;;;;;;;;;;;8.40;71.80;;;;;;5099142;27;92203;-43
2023/04/12 02:41:06;;;;;;;;;;;8.40;71.80;;;;;;5099084;27;93063;-43
2023/04/12 02:43:32;;;;;;;;;;;8.40;71.90;;;;;;5098428;27;94772;-43
2023/04/12 02:45:57;;;;;;;;;;;8.40;71.90;;;;;;5098448;27;92186;-43
2023/04/12 02:48:23;;;;;;;;;;;8.40;71.80;;;;;;5098941;27;93950;-43
2023/04/12 02:50:48;;;;;;;;;;;8.40;71.80;;;;;;5099161;27;92906;-43
2023/04/12 02:53:16;;;;;;;;;;;8.40;71.80;;;;;;5099211;27;93141;-43
2023/04/12 02:55:43;;;;;;;;;;;8.40;71.90;;;;;;5095180;27;93796;-43
2023/04/12 02:58:09;;;;;;;;;;;8.30;71.90;;;;;;5100655;27;95449;-42
2023/04/12 03:00:34;;;;;;;;;;;8.30;71.90;;;;;;5098796;27;94951;-42
2023/04/12 03:03:01;;;;;;;;;;;8.40;71.90;;;;;;5098456;27;94284;-42
2023/04/12 03:05:27;;;;;;;;;;;8.40;72.00;;;;;;5098501;27;92179;-42
2023/04/12 03:07:52;;;;;;;;;;;8.30;71.90;;;;;;5098339;27;93418;-42
2023/04/12 03:10:18;;;;;;;;;;;8.30;71.90;;;;;;5097963;27;94369;-42
2023/04/12 03:12:43;;;;;;;;;;;8.30;71.90;;;;;;5101826;27;92188;-43
2023/04/12 03:15:09;;;;;;;;;;;8.30;72.00;;;;;;5102166;27;94303;-43
2023/04/12 03:17:35;;;;;;;;;;;8.30;72.00;;;;;;5101521;27;94457;-42
2023/04/12 03:20:08;;;;;;;;;;;8.30;72.00;;;;;;5104938;27;92393;-42
2023/04/12 03:22:35;;;;;;;;;;;8.30;72.00;;;;;;5097578;27;93937;-42
2023/04/12 03:25:01;;;;;;;;;;;8.30;72.00;;;;;;5101964;27;92711;-42
2023/04/12 03:27:27;;;;;;;;;;;8.30;72.00;;;;;;5097751;27;93594;-42
2023/04/12 03:29:52;;;;;;;;;;;8.30;72.00;;;;;;5101519;27;93707;-42
2023/04/12 03:32:19;;;;;;;;;;;8.30;72.00;;;;;;5101723;27;92217;-42
2023/04/12 03:34:45;;;;;;;;;;;8.30;72.00;;;;;;5097622;27;93865;-42
2023/04/12 03:37:10;;;;;;;;;;;8.30;72.60;;;;;;5100886;27;94225;-42
2023/04/12 03:39:36;;;;;;;;;;;8.30;72.10;;;;;;5102305;27;91498;-43
2023/04/12 03:42:01;;;;;;;;;;;8.20;72.10;;;;;;5104061;27;92879;-43
2023/04/12 03:44:27;;;;;;;;;;;8.20;72.00;;;;;;5101615;27;92853;-42
2023/04/12 03:46:53;;;;;;;;;;;8.20;72.00;;;;;;5100647;27;93581;-43
2023/04/12 03:49:19;;;;;;;;;;;8.20;72.20;;;;;;5100521;27;94646;-43
2023/04/12 03:51:45;;;;;;;;;;;8.20;72.20;;;;;;5101235;27;92076;-43
2023/04/12 03:54:11;;;;;;;;;;;8.20;72.30;;;;;;5101325;27;94559;-43
2023/04/12 03:56:37;;;;;;;;;;;8.20;72.20;;;;;;5100921;27;94884;-42
2023/04/12 03:59:03;;;;;;;;;;;8.20;72.20;;;;;;5101427;27;92224;-43
2023/04/12 04:01:29;;;;;;;;;;;8.20;72.20;;;;;;5097406;27;94169;-43
2023/04/12 04:03:54;;;;;;;;;;;8.20;72.30;;;;;;5104783;27;93535;-43
2023/04/12 04:06:20;;;;;;;;;;;8.20;72.30;;;;;;5101060;27;93067;-43
2023/04/12 04:08:46;;;;;;;;;;;8.20;72.30;;;;;;5100540;27;94384;-43
2023/04/12 04:11:11;;;;;;;;;;;8.10;72.30;;;;;;5099057;27;93165;-43
2023/04/12 04:13:37;;;;;;;;;;;8.10;72.40;;;;;;5100813;27;93408;-42
2023/04/12 04:16:04;;;;;;;;;;;8.10;72.40;;;;;;5101139;27;93135;-42
2023/04/12 04:18:29;;;;;;;;;;;8.10;72.50;;;;;;5101427;27;92190;-42
2023/04/12 04:20:55;;;;;;;;;;;8.10;72.50;;;;;;5097111;27;94147;-42
2023/04/12 04:23:22;;;;;;;;;;;8.10;72.50;;;;;;5100028;27;94447;-43
2023/04/12 04:25:47;;;;;;;;;;;8.10;72.50;;;;;;5104010;27;92019;-42
2023/04/12 04:28:14;;;;;;;;;;;8.10;72.50;;;;;;5100406;27;93682;-42
2023/04/12 04:30:40;;;;;;;;;;;8.10;72.50;;;;;;5100831;27;92140;-43
2023/04/12 04:33:06;;;;;;;;;;;8.10;72.50;;;;;;5101040;27;92202;-43
2023/04/12 04:35:32;;;;;;;;;;;8.10;72.50;;;;;;5099268;27;95321;-43
2023/04/12 04:37:59;;;;;;;;;;;8.10;72.50;;;;;;5100797;27;92173;-43
2023/04/12 04:40:25;;;;;;;;;;;8.20;72.50;;;;;;5100724;27;93584;-43
2023/04/12 04:42:53;;;;;;;;;;;8.10;72.50;;;;;;5099813;27;94142;-43
2023/04/12 04:45:25;;;;;;;;;;;8.10;72.60;;;;;;5103691;27;92761;-43
2023/04/12 04:47:53;;;;;;;;;;;8.10;72.60;;;;;;5099755;27;94916;-43
2023/04/12 04:50:22;;;;;;;;;;;8.10;72.60;;;;;;5100495;27;92212;-42
2023/04/12 04:52:48;;;;;;;;;;;8.10;72.50;;;;;;5101069;27;91537;-42
2023/04/12 04:55:14;;;;;;;;;;;8.10;72.40;;;;;;5096407;27;92986;-43
2023/04/12 04:57:40;;;;;;;;;;;8.10;72.60;;;;;;5100333;27;92838;-43
2023/04/12 05:00:09;;;;;;;;;;;8.10;72.50;;;;;;5100096;27;93046;-42
2023/04/12 05:02:35;;;;;;;;;;;8.10;72.50;;;;;;5099962;27;94162;-42
2023/04/12 05:05:03;;;;;;;;;;;8.10;72.50;;;;;;5100088;27;92609;-42
2023/04/12 05:07:28;;;;;;;;;;;8.10;72.50;;;;;;5098780;27;94157;-42
2023/04/12 05:09:54;;;;;;;;;;;8.10;72.40;;;;;;5100122;27;92130;-42
2023/04/12 05:12:20;;;;;;;;;;;8.10;72.50;;;;;;5100101;27;93790;-43
2023/04/12 05:14:45;;;;;;;;;;;8.10;72.50;;;;;;5099265;27;92303;-43
2023/04/12 05:17:11;;;;;;;;;;;8.10;72.50;;;;;;5100565;27;91486;-43
2023/04/12 05:19:36;;;;;;;;;;;8.10;72.40;;;;;;5100037;27;93393;-42
2023/04/12 05:22:02;;;;;;;;;;;8.10;72.50;;;;;;5099623;27;92153;-43
2023/04/12 05:24:27;;;;;;;;;;;8.10;72.50;;;;;;5099635;27;93058;-43
2023/04/12 05:26:53;;;;;;;;;;;8.10;72.50;;;;;;5099987;27;93795;-42
2023/04/12 05:29:18;;;;;;;;;;;8.10;72.50;;;;;;5100775;27;92981;-43
2023/04/12 05:31:44;;;;;;;;;;;8.10;72.50;;;;;;5098272;27;93985;-42
2023/04/12 05:34:10;;;;;;;;;;;8.10;72.40;;;;;;5098231;27;94525;-43
2023/04/12 05:36:35;;;;;;;;;;;8.10;72.40;;;;;;5100124;27;92313;-42
2023/04/12 05:39:00;;;;;;;;;;;8.10;72.50;;;;;;5100488;27;92394;-42
2023/04/12 05:41:26;;;;;;;;;;;8.10;72.50;;;;;;5099976;27;94022;-43
2023/04/12 05:43:52;;;;;;;;;;;8.10;72.50;;;;;;5099857;27;92121;-43
2023/04/12 05:46:17;;;;;;;;;;;8.10;72.50;;;;;;5099854;27;94126;-43
2023/04/12 05:48:43;;;;;;;;;;;8.10;72.40;;;;;;5098497;27;95267;-43
2023/04/12 05:51:08;;;;;;;;;;;8.10;72.30;;;;;;5102606;27;92697;-43
2023/04/12 05:53:34;;;;;;;;;;;8.10;72.40;;;;;;5098971;27;94485;-43
2023/04/12 05:55:59;;;;;;;;;;;8.10;72.50;;;;;;5099396;27;92087;-43
2023/04/12 05:58:25;;;;;;;;;;;8.00;72.40;;;;;;5099311;27;93078;-43
2023/04/12 06:00:52;;;;;;;;;;;8.10;72.50;;;;;;5099177;27;94503;-43
2023/04/12 06:03:18;;;;;;;;;;;8.10;72.50;;;;;;5099471;27;92494;-42
2023/04/12 06:05:43;;;;;;;;;;;8.10;72.50;;;;;;5096188;27;94127;-43
2023/04/12 06:08:09;;;;;;;;;;;8.10;72.50;;;;;;5098867;27;92196;-43
2023/04/12 06:10:34;;;;;;;;;;;8.10;72.50;;;;;;5099777;27;91994;-43
2023/04/12 06:13:00;;;;;;;;;;;8.10;72.50;;;;;;5101361;27;93924;-43
2023/04/12 06:15:25;;;;;;;;;;;8.10;72.50;;;;;;5099469;27;92118;-42
2023/04/12 06:17:51;;;;;;;;;;;8.10;72.50;;;;;;5099126;27;93779;-43
2023/04/12 06:20:17;;;;;;;;;;;8.10;72.50;;;;;;5098559;27;94363;-43
2023/04/12 06:22:42;;;;;;;;;;;8.00;72.40;;;;;;5098501;27;92328;-43
2023/04/12 06:25:08;;;;;;;;;;;8.10;72.40;;;;;;5098624;27;93721;-43
2023/04/12 06:27:33;;;;;;;;;;;8.10;72.30;;;;;;5098626;27;94472;-43
2023/04/12 06:29:59;;;;;;;;;;;8.10;72.40;;;;;;5099447;27;91821;-43
2023/04/12 06:32:24;;;;;;;;;;;8.10;72.50;;;;;;5099182;27;93264;-43
2023/04/12 06:34:50;;;;;;;;;;;8.00;72.40;;;;;;5101435;27;94465;-43
2023/04/12 06:37:15;;;;;;;;;;;8.00;72.40;;;;;;5098627;27;93864;-43
2023/04/12 06:39:41;;;;;;;;;;;8.10;72.50;;;;;;5098059;27;94415;-43
2023/04/12 06:42:07;;;;;;;;;;;8.00;72.50;;;;;;5099130;27;92135;-43
2023/04/12 06:44:32;;;;;;;;;;;8.00;72.40;;;;;;5099067;27;94080;-43
2023/04/12 06:46:58;;;;;;;;;;;8.00;72.40;;;;;;5102006;27;92982;-43
2023/04/12 06:49:24;;;;;;;;;;;8.10;72.50;;;;;;5102399;27;92457;-43
2023/04/12 06:51:50;;;;;;;;;;;8.00;72.40;;;;;;5102557;27;94455;-43
2023/04/12 06:54:15;;;;;;;;;;;8.10;72.50;;;;;;5105047;27;91781;-43
2023/04/12 06:56:41;;;;;;;;;;;8.10;72.40;;;;;;5102166;27;92073;-43
2023/04/12 06:59:07;;;;;;;;;;;8.00;72.50;;;;;;5101114;27;94623;-43
2023/04/12 07:01:32;;;;;;;;;;;8.10;72.50;;;;;;5100017;27;93160;-43
2023/04/12 07:03:58;;;;;;;;;;;8.00;72.30;;;;;;5101868;27;93521;-43
2023/04/12 07:06:23;;;;;;;;;;;8.00;72.40;;;;;;5101616;27;93154;-43
2023/04/12 07:08:49;;;;;;;;;;;8.10;72.40;;;;;;5101928;27;92164;-43
2023/04/12 07:11:15;;;;;;;;;;;8.00;72.30;;;;;;5102069;27;93977;-43
2023/04/12 07:13:40;;;;;;;;;;;8.00;72.40;;;;;;5101184;27;94380;-43
2023/04/12 07:16:06;;;;;;;;;;;8.00;72.50;;;;;;5105624;27;92029;-43
2023/04/12 07:18:31;;;;;;;;;;;8.00;72.40;;;;;;5101873;27;93213;-43
2023/04/12 07:20:57;;;;;;;;;;;8.00;72.40;;;;;;5101880;27;92799;-43
2023/04/12 07:23:25;;;;;;;;;;;8.10;72.40;;;;;;5102242;27;92130;-43
2023/04/12 07:25:51;;;;;;;;;;;8.00;72.40;;;;;;5100617;27;95461;-43
2023/04/12 07:28:17;;;;;;;;;;;8.10;72.40;;;;;;5102106;27;92683;-43
2023/04/12 07:30:43;;;;;;;;;;;8.00;72.40;;;;;;5101942;27;93055;-43
2023/04/12 07:33:08;;;;;;;;;;;8.10;72.40;;;;;;5101529;27;94190;-43
2023/04/12 07:35:34;;;;;;;;;;;8.10;72.40;;;;;;5101549;27;92337;-43
2023/04/12 07:38:00;;;;;;;;;;;8.10;72.40;;;;;;5104302;27;93750;-43
2023/04/12 07:40:25;;;;;;;;;;;8.10;72.30;;;;;;5101930;27;92277;-43
2023/04/12 07:42:51;;;;;;;;;;;8.10;72.30;;;;;;5102436;27;93950;-43
2023/04/12 07:45:18;;;;;;;;;;;8.10;72.90;;;;;;5101369;27;92635;-43
2023/04/12 07:47:43;;;;;;;;;;;8.10;72.30;;;;;;5101517;27;92392;-43
2023/04/12 07:50:09;;;;;;;;;;;8.10;72.30;;;;;;5100623;27;93482;-43
2023/04/12 07:52:35;;;;;;;;;;;8.10;72.20;;;;;;5100719;27;93589;-43
2023/04/12 07:55:00;;;;;;;;;;;8.20;72.30;;;;;;5101287;27;92209;-43
2023/04/12 07:57:26;;;;;;;;;;;8.10;72.20;;;;;;5100349;27;93731;-42
2023/04/12 07:59:51;;;;;;;;;;;8.10;72.20;;;;;;5103342;27;94736;-43
2023/04/12 08:02:26;;;;;;;;;;;8.10;72.10;;;;;;5100642;27;92796;-43
2023/04/12 08:04:52;;;;;;;;;;;8.10;72.20;;;;;;5100193;27;93025;-43
2023/04/12 08:07:18;;;;;;;;;;;8.10;72.10;;;;;;5096661;27;91442;-42
2023/04/12 08:09:43;;;;;;;;;;;8.10;71.80;;;;;;5100941;27;92505;-43
2023/04/12 08:12:09;;;;;;;;;;;8.10;72.00;;;;;;5100520;27;93266;-43
2023/04/12 08:14:34;;;;;;;;;;;8.10;71.80;;;;;;5099895;27;93121;-43
2023/04/12 08:17:00;;;;;;;;;;;8.10;72.00;;;;;;5100306;27;94777;-43
2023/04/12 08:19:26;;;;;;;;;;;8.10;71.80;;;;;;5100258;27;93024;-43
2023/04/12 08:21:52;;;;;;;;;;;8.10;71.80;;;;;;5103847;27;92231;-43
2023/04/12 08:24:18;;;;;;;;;;;8.10;71.90;;;;;;5100416;27;94655;-43
2023/04/12 08:26:44;;;;;;;;;;;8.10;72.00;;;;;;5101006;27;92154;-43
2023/04/12 08:29:10;;;;;;;;;;;8.20;71.90;;;;;;5101387;27;94346;-43
2023/04/12 08:31:35;;;;;;;;;;;8.20;72.00;;;;;;5100860;27;92156;-42
2023/04/12 08:34:01;;;;;;;;;;;8.20;71.90;;;;;;5100368;27;92285;-43
2023/04/12 08:36:26;;;;;;;;;;;8.20;71.70;;;;;;5100507;27;93731;-42
2023/04/12 08:38:54;;;;;;;;;;;8.20;71.80;;;;;;5099068;27;94683;-43
2023/04/12 08:41:20;;;;;;;;;;;8.20;71.80;;;;;;5100735;27;92175;-43
2023/04/12 08:43:46;;;;;;;;;;;8.20;71.80;;;;;;5102793;27;93498;-43
2023/04/12 08:46:15;;;;;;;;;;;8.20;71.70;;;;;;5100953;27;92642;-43
2023/04/12 08:48:42;;;;;;;;;;;8.10;71.70;;;;;;5100319;27;93584;-43
2023/04/12 08:51:10;;;;;;;;;;;8.10;71.90;;;;;;5100081;27;94513;-43
2023/04/12 08:53:35;;;;;;;;;;;8.10;72.00;;;;;;5099968;27;92191;-43
2023/04/12 08:56:02;;;;;;;;;;;8.20;71.70;;;;;;5100296;27;93573;-43
2023/04/12 08:58:28;;;;;;;;;;;8.20;71.60;;;;;;5099818;27;93275;-43
2023/04/12 09:00:54;;;;;;;;;;;8.20;71.70;;;;;;5100091;27;92286;-43
2023/04/12 09:03:20;;;;;;;;;;;8.20;71.50;;;;;;5102014;27;93801;-43
2023/04/12 09:05:46;;;;;;;;;;;8.20;71.70;;;;;;5100064;27;92206;-43
2023/04/12 09:08:11;;;;;;;;;;;8.20;71.90;;;;;;5098911;27;93474;-43
2023/04/12 09:10:37;;;;;;;;;;;8.20;71.90;;;;;;5099006;27;94418;-42
2023/04/12 09:13:03;;;;;;;;;;;8.20;71.90;;;;;;5100047;27;92175;-42
2023/04/12 09:15:29;;;;;;;;;;;8.20;71.70;;;;;;5099361;27;94119;-43
2023/04/12 09:18:07;;;;;;;;;;;8.20;71.80;;;;;;5099193;27;94173;-43
2023/04/12 09:20:33;;;;;;;;;;;8.20;71.70;;;;;;5100540;27;92073;-43
2023/04/12 09:22:59;;;;;;;;;;;8.20;71.70;;;;;;5099607;27;93035;-43
2023/04/12 09:25:35;;;;;;;;;;;8.20;71.40;;;;;;5098356;27;94564;-42
2023/04/12 09:28:00;;;;;;;;;;;8.20;71.30;;;;;;5098957;27;93650;-42
2023/04/12 09:30:26;;;;;;;;;;;8.20;71.00;;;;;;5099134;27;93766;-43
2023/04/12 09:32:53;;;;;;;;;;;8.20;71.00;;;;;;5099343;27;92205;-42
2023/04/12 09:35:31;;;;;;;;;;;8.30;70.80;;;;;;5095191;27;94067;-43
2023/04/12 09:37:57;;;;;;;;;;;8.30;70.70;;;;;;5098339;27;94904;-43
2023/04/12 09:40:23;;;;;;;;;;;8.30;70.50;;;;;;5098665;27;92118;-43
2023/04/12 09:42:52;;;;;;;;;;;8.30;70.60;;;;;;5098887;27;93070;-43
2023/04/12 09:45:19;;;;;;;;;;;8.30;70.00;;;;;;5099291;27;93654;-42
2023/04/12 09:47:44;;;;;;;;;;;8.30;69.60;;;;;;5101754;27;92161;-43
2023/04/12 09:50:18;;;;;;;;;;;8.30;70.20;;;;;;5099175;27;94585;-43
2023/04/12 09:52:44;;;;;;;;;;;8.30;70.30;;;;;;5094507;27;93062;-42
2023/04/12 09:55:10;;;;;;;;;;;8.30;69.50;;;;;;5098871;27;94986;-43
2023/04/12 09:57:40;;;;;;;;;;;8.30;69.40;;;;;;5098052;27;94484;-42
2023/04/12 10:00:11;;;;;;;;;;;8.30;69.40;;;;;;5098670;27;92140;-42
2023/04/12 10:02:37;;;;;;;;;;;8.30;69.90;;;;;;5095113;27;93907;-42
2023/04/12 10:05:03;;;;;;;;;;;8.30;69.90;;;;;;5098317;27;95267;-42
2023/04/12 10:07:28;;;;;;;;;;;8.30;69.70;;;;;;5098544;27;92062;-42
2023/04/12 10:09:56;;;;;;;;;;;8.30;69.40;;;;;;5101699;27;93711;-42
2023/04/12 10:12:22;;;;;;;;;;;8.30;69.20;;;;;;5098448;27;92205;-42
2023/04/12 10:14:48;;;;;;;;;;;8.30;68.80;;;;;;5098345;27;94341;-41
2023/04/12 10:17:14;;;;;;;;;;;8.30;69.30;;;;;;5097937;27;95429;-42
2023/04/12 10:19:39;;;;;;;;;;;8.30;69.40;;;;;;5098317;27;92252;-42
2023/04/12 10:22:05;;;;;;;;;;;8.40;69.50;;;;;;5098483;27;93963;-42
2023/04/12 10:24:31;;;;;;;;;;;8.40;69.30;;;;;;5098071;27;94805;-42
2023/04/12 10:27:02;;;;;;;;;;;8.40;69.50;;;;;;5098535;27;92631;-43
2023/04/12 10:29:37;;;;;;;;;;;8.40;69.80;;;;;;5099247;27;93079;-42
2023/04/12 10:32:21;;;;;;;;;;;8.40;69.10;;;;;;5101172;27;94512;-42
2023/04/12 10:35:13;;;;;;;;;;;8.40;69.50;;;;;;5096432;27;93835;-43
2023/04/12 10:37:58;;;;;;;;;;;8.40;69.50;;;;;;5088969;27;94539;-42
2023/04/12 10:40:24;;;;;;;;;;;8.40;69.30;;;;;;5095870;27;92669;-42
2023/04/12 10:43:09;;;;;;;;;;;8.40;68.80;;;;;;5093809;27;93789;-42
2023/04/12 10:45:35;;;;;;;;;;;8.30;68.60;;;;;;5094863;27;94935;-42
2023/04/12 10:48:02;;;;;;;;;;;8.40;68.40;;;;;;5098818;27;92216;-42
2023/04/12 10:50:29;;;;;;;;;;;8.40;69.10;;;;;;5098433;27;94005;-42
2023/04/12 10:53:15;;;;;;;;;;;8.40;69.20;;;;;;5098240;27;93442;-42
2023/04/12 10:55:43;;;;;;;;;;;8.40;68.70;;;;;;5100994;27;92545;-42
2023/04/12 10:58:08;;;;;;;;;;;8.40;69.80;;;;;;5097025;27;93042;-42
2023/04/12 11:00:52;;;;;;;;;;;8.30;68.70;;;;;;5098538;27;91985;-42
2023/04/12 11:03:18;;;;;;;;;;;8.30;68.40;;;;;;5097580;27;93116;-42
2023/04/12 11:06:00;;;;;;;;;;;8.30;68.50;;;;;;5097065;27;94654;-42
2023/04/12 11:08:27;;;;;;;;;;;8.30;68.20;;;;;;5097006;27;93252;-42
2023/04/12 11:10:58;;;;;;;;;;;8.40;68.00;;;;;;5093610;27;94916;-42
2023/04/12 11:13:25;;;;;;;;;;;8.40;68.40;;;;;;5096761;27;94683;-42
2023/04/12 11:15:55;;;;;;;;;;;8.50;67.90;;;;;;5100908;27;92082;-42
2023/04/12 11:18:20;;;;;;;;;;;8.30;67.40;;;;;;5096897;27;94596;-43
2023/04/12 11:20:46;;;;;;;;;;;8.30;67.00;;;;;;5097806;27;92181;-43
2023/04/12 11:23:12;;;;;;;;;;;8.30;67.40;;;;;;5098137;27;92449;-43
2023/04/12 11:25:37;;;;;;;;;;;8.30;67.60;;;;;;5097988;27;92527;-43
2023/04/12 11:28:04;;;;;;;;;;;8.30;67.20;;;;;;5097532;27;92182;-43
2023/04/12 11:30:29;;;;;;;;;;;8.30;67.40;;;;;;5097662;27;93842;-43
2023/04/12 11:32:55;;;;;;;;;;;8.30;66.90;;;;;;5098038;27;95285;-42
2023/04/12 11:35:26;;;;;;;;;;;8.30;67.40;;;;;;5101482;27;92196;-43
2023/04/12 11:37:53;;;;;;;;;;;8.30;67.80;;;;;;5103546;27;94674;-42
2023/04/12 11:40:21;;;;;;;;;;;8.30;68.00;;;;;;5098721;27;92793;-43
2023/04/12 11:42:46;;;;;;;;;;;8.40;67.80;;;;;;5100857;27;93774;-43
2023/04/12 11:45:17;;;;;;;;;;;8.50;67.50;;;;;;5100865;27;94771;-43
2023/04/12 11:47:43;;;;;;;;;;;8.50;67.50;;;;;;5100749;27;92282;-42
2023/04/12 11:50:09;;;;;;;;;;;8.50;66.60;;;;;;5101677;27;93808;-43
2023/04/12 11:52:35;;;;;;;;;;;8.50;66.90;;;;;;5100210;27;94618;-42
2023/04/12 11:55:03;;;;;;;;;;;8.40;66.90;;;;;;5097008;27;92207;-43
2023/04/12 11:57:29;;;;;;;;;;;8.40;66.60;;;;;;5096366;27;94204;-42
2023/04/12 11:59:56;;;;;;;;;;;8.40;66.10;;;;;;5103478;27;94517;-43
2023/04/12 12:02:21;;;;;;;;;;;8.40;66.90;;;;;;5100748;27;93922;-42
2023/04/12 12:04:47;;;;;;;;;;;8.50;67.20;;;;;;5099569;27;94641;-42
2023/04/12 12:07:14;;;;;;;;;;;8.50;67.10;;;;;;5099872;27;92225;-43
2023/04/12 12:09:40;;;;;;;;;;;8.50;65.70;;;;;;5100461;27;92361;-42
2023/04/12 12:12:05;;;;;;;;;;;8.50;64.90;;;;;;5100079;27;94389;-43
2023/04/12 12:14:32;;;;;;;;;;;8.50;65.40;;;;;;5100288;27;91439;-43
2023/04/12 12:16:58;;;;;;;;;;;8.50;65.70;;;;;;5100875;27;92020;-43
2023/04/12 12:19:26;;;;;;;;;;;8.50;65.20;;;;;;5100007;27;94386;-43
2023/04/12 12:21:52;;;;;;;;;;;8.50;65.50;;;;;;5103044;27;93138;-43
2023/04/12 12:24:17;;;;;;;;;;;8.60;65.70;;;;;;5099840;27;94759;-43
2023/04/12 12:26:43;;;;;;;;;;;8.70;65.60;;;;;;5095898;27;92922;-43
2023/04/12 12:29:15;;;;;;;;;;;8.70;65.30;;;;;;5100017;27;93602;-43
2023/04/12 12:31:44;;;;;;;;;;;8.70;65.20;;;;;;5100018;27;94557;-43
2023/04/12 12:34:11;;;;;;;;;;;8.70;65.40;;;;;;5099514;27;92316;-42
2023/04/12 12:36:37;;;;;;;;;;;8.60;65.00;;;;;;5100221;27;93789;-43
2023/04/12 12:39:09;;;;;;;;;;;8.60;65.50;;;;;;5100113;27;93650;-43
2023/04/12 12:41:34;;;;;;;;;;;8.70;65.50;;;;;;5100111;27;92595;-43
2023/04/12 12:44:00;;;;;;;;;;;8.70;65.00;;;;;;5102308;27;93835;-42
2023/04/12 12:46:25;;;;;;;;;;;8.70;65.50;;;;;;5099041;27;93552;-42
2023/04/12 12:48:51;;;;;;;;;;;8.70;65.20;;;;;;5100235;27;94712;-43
2023/04/12 12:51:18;;;;;;;;;;;8.80;64.90;;;;;;5099570;27;94188;-43
2023/04/12 12:53:43;;;;;;;;;;;8.90;65.30;;;;;;5099655;27;92134;-42
2023/04/12 12:56:10;;;;;;;;;;;8.80;64.50;;;;;;5095515;27;93619;-43
2023/04/12 12:58:36;;;;;;;;;;;8.80;65.00;;;;;;5099203;27;93692;-43
2023/04/12 13:01:03;;;;;;;;;;;8.90;64.90;;;;;;5099812;27;92234;-43
2023/04/12 13:03:28;;;;;;;;;;;8.90;64.70;;;;;;5102417;27;94096;-43
2023/04/12 13:05:55;;;;;;;;;;;8.90;65.40;;;;;;5099353;27;92624;-43
2023/04/12 13:08:20;;;;;;;;;;;8.90;64.60;;;;;;5099183;27;93954;-43
2023/04/12 13:10:46;;;;;;;;;;;8.80;64.00;;;;;;5098377;27;95622;-43
2023/04/12 13:13:12;;;;;;;;;;;8.80;64.50;;;;;;5099437;27;92226;-42
2023/04/12 13:15:37;;;;;;;;;;;8.80;64.40;;;;;;5099806;27;93636;-43
2023/04/12 13:18:03;;;;;;;;;;;8.90;64.60;;;;;;5099541;27;93233;-43
2023/04/12 13:20:28;;;;;;;;;;;8.80;64.70;;;;;;5099364;27;92699;-43
2023/04/12 13:22:54;;;;;;;;;;;8.90;64.80;;;;;;5099566;27;93947;-43
2023/04/12 13:25:19;;;;;;;;;;;8.90;65.10;;;;;;5102291;27;94675;-42
2023/04/12 13:27:47;;;;;;;;;;;8.90;64.60;;;;;;5099816;27;92121;-43
2023/04/12 13:30:12;;;;;;;;;;;8.80;64.80;;;;;;5095305;27;93213;-43
2023/04/12 13:32:38;;;;;;;;;;;8.80;65.50;;;;;;5099592;27;92197;-43
2023/04/12 13:35:03;;;;;;;;;;;8.90;63.70;;;;;;5098946;27;93865;-43
2023/04/12 13:37:29;;;;;;;;;;;8.90;65.00;;;;;;5098636;27;95364;-42
2023/04/12 13:39:54;;;;;;;;;;;8.90;63.80;;;;;;5099061;27;92244;-42
2023/04/12 13:42:21;;;;;;;;;;;8.90;64.50;;;;;;5098989;27;93813;-43
2023/04/12 13:44:47;;;;;;;;;;;8.90;64.80;;;;;;5094641;27;94792;-43
2023/04/12 13:47:13;;;;;;;;;;;9.00;64.60;;;;;;5102575;27;92150;-43
2023/04/12 13:49:39;;;;;;;;;;;9.00;64.90;;;;;;5093932;27;94748;-43
2023/04/12 13:52:04;;;;;;;;;;;9.00;64.70;;;;;;5100262;27;91936;-43
2023/04/12 13:54:30;;;;;;;;;;;9.00;64.90;;;;;;5097928;27;92923;-43
2023/04/12 13:56:56;;;;;;;;;;;9.10;64.40;;;;;;5099158;27;95048;-43
2023/04/12 13:59:22;;;;;;;;;;;9.10;64.70;;;;;;5098862;27;93013;-43
2023/04/12 14:01:47;;;;;;;;;;;9.10;64.00;;;;;;5099382;27;93340;-43
2023/04/12 14:04:13;;;;;;;;;;;9.10;63.70;;;;;;5098090;27;94375;-43
2023/04/12 14:06:38;;;;;;;;;;;9.20;64.20;;;;;;5098607;27;92657;-43
2023/04/12 14:09:07;;;;;;;;;;;9.20;64.30;;;;;;5101669;27;93629;-43
2023/04/12 14:11:56;;;;;;;;;;;9.20;64.80;;;;;;5099145;27;92606;-43
2023/04/12 14:14:22;;;;;;;;;;;9.20;64.90;;;;;;5098801;27;93866;-43
2023/04/12 14:16:48;;;;;;;;;;;9.30;64.90;;;;;;5094691;27;93695;-43
2023/04/12 14:19:14;;;;;;;;;;;9.30;65.00;;;;;;5099243;27;92183;-43
2023/04/12 14:21:39;;;;;;;;;;;9.30;64.80;;;;;;5097533;27;95728;-43
2023/04/12 14:24:05;;;;;;;;;;;9.30;65.10;;;;;;5097611;27;95422;-43
2023/04/12 14:26:31;;;;;;;;;;;9.40;64.90;;;;;;5098600;27;92193;-43
2023/04/12 14:28:56;;;;;;;;;;;9.40;65.30;;;;;;5098205;27;94078;-43